sensor_id;sensor_type;location;lat;lon;timestamp;pressure;altitude;pressure_sealevel;temperature;humidity
67397;BME280;57728;50.448;18.824;2023-08-06T00:00:30;96725.00;;;20.46;83.32
67397;BME280;57728;50.448;18.824;2023-08-06T00:02:31;96689.38;;;20.36;83.45
67397;BME280;57728;50.448;18.824;2023-08-06T00:04:32;96708.88;;;20.48;83.60
67397;BME280;57728;50.448;18.824;2023-08-06T00:06:34;96679.50;;;20.35;82.94
67397;BME280;57728;50.448;18.824;2023-08-06T00:08:35;96702.88;;;20.46;83.01
67397;BME280;57728;50.448;18.824;2023-08-06T00:10:36;96696.84;;;20.44;82.89
67397;BME280;57728;50.448;18.824;2023-08-06T00:12:38;96691.34;;;20.44;83.35
67397;BME280;57728;50.448;18.824;2023-08-06T00:14:39;96648.75;;;20.45;83.20
67397;BME280;57728;50.448;18.824;2023-08-06T00:16:44;96632.66;;;20.38;83.07
67397;BME280;57728;50.448;18.824;2023-08-06T00:18:46;96621.28;;;20.31;83.10
67397;BME280;57728;50.448;18.824;2023-08-06T00:20:48;96600.84;;;20.23;83.08
67397;BME280;57728;50.448;18.824;2023-08-06T00:22:49;96606.47;;;20.36;83.29
67397;BME280;57728;50.448;18.824;2023-08-06T00:24:52;96550.50;;;20.00;83.26
67397;BME280;57728;50.448;18.824;2023-08-06T00:26:53;96614.94;;;20.39;83.83
67397;BME280;57728;50.448;18.824;2023-08-06T00:28:54;96561.88;;;20.16;83.54
67397;BME280;57728;50.448;18.824;2023-08-06T00:30:56;96575.91;;;20.41;83.39
67397;BME280;57728;50.448;18.824;2023-08-06T00:32:57;96552.53;;;20.30;83.14
67397;BME280;57728;50.448;18.824;2023-08-06T00:34:58;96532.28;;;20.17;83.36
67397;BME280;57728;50.448;18.824;2023-08-06T00:37:00;96549.75;;;20.38;83.29
67397;BME280;57728;50.448;18.824;2023-08-06T00:39:02;96524.13;;;20.29;83.60
67397;BME280;57728;50.448;18.824;2023-08-06T00:41:03;96529.09;;;20.36;83.38
67397;BME280;57728;50.448;18.824;2023-08-06T00:43:06;96513.69;;;20.35;83.33
67397;BME280;57728;50.448;18.824;2023-08-06T00:45:07;96454.16;;;19.99;83.52
67397;BME280;57728;50.448;18.824;2023-08-06T00:47:09;96450.28;;;20.00;83.68
67397;BME280;57728;50.448;18.824;2023-08-06T00:49:11;96483.94;;;20.32;83.48
67397;BME280;57728;50.448;18.824;2023-08-06T00:51:13;96395.94;;;19.83;83.65
67397;BME280;57728;50.448;18.824;2023-08-06T00:53:15;96342.03;;;19.68;83.77
67397;BME280;57728;50.448;18.824;2023-08-06T00:55:18;96390.75;;;20.11;83.85
67397;BME280;57728;50.448;18.824;2023-08-06T00:57:24;96405.03;;;20.13;83.87
67397;BME280;57728;50.448;18.824;2023-08-06T00:59:27;96395.66;;;20.05;83.89
67397;BME280;57728;50.448;18.824;2023-08-06T01:01:30;96412.84;;;20.11;84.09
67397;BME280;57728;50.448;18.824;2023-08-06T01:03:32;96408.47;;;20.10;83.90
67397;BME280;57728;50.448;18.824;2023-08-06T01:05:33;96439.22;;;20.00;84.31
67397;BME280;57728;50.448;18.824;2023-08-06T01:10:23;96507.53;;;20.20;84.59
67397;BME280;57728;50.448;18.824;2023-08-06T01:12:47;96430.69;;;20.22;84.46
67397;BME280;57728;50.448;18.824;2023-08-06T01:15:11;96385.69;;;20.22;84.17
67397;BME280;57728;50.448;18.824;2023-08-06T01:17:20;96372.56;;;20.10;84.12
67397;BME280;57728;50.448;18.824;2023-08-06T01:19:22;96391.03;;;20.18;83.93
67397;BME280;57728;50.448;18.824;2023-08-06T01:21:24;96387.81;;;20.16;84.36
67397;BME280;57728;50.448;18.824;2023-08-06T01:23:25;96392.00;;;20.22;84.23
67397;BME280;57728;50.448;18.824;2023-08-06T01:25:35;96376.22;;;20.23;83.92
67397;BME280;57728;50.448;18.824;2023-08-06T01:27:58;96395.22;;;20.24;84.12
67397;BME280;57728;50.448;18.824;2023-08-06T01:30:14;96390.19;;;20.26;84.07
67397;BME280;57728;50.448;18.824;2023-08-06T01:32:34;96343.84;;;20.02;84.42
67397;BME280;57728;50.448;18.824;2023-08-06T01:34:43;96334.97;;;19.97;84.31
67397;BME280;57728;50.448;18.824;2023-08-06T01:36:46;96363.22;;;20.23;84.05
67397;BME280;57728;50.448;18.824;2023-08-06T01:38:48;96382.00;;;20.39;84.45
67397;BME280;57728;50.448;18.824;2023-08-06T01:40:53;96382.94;;;20.43;84.21
67397;BME280;57728;50.448;18.824;2023-08-06T01:42:54;96352.25;;;20.36;84.23
67397;BME280;57728;50.448;18.824;2023-08-06T01:44:56;96331.81;;;20.28;83.80
67397;BME280;57728;50.448;18.824;2023-08-06T01:46:57;96369.19;;;20.55;83.50
67397;BME280;57728;50.448;18.824;2023-08-06T01:48:58;96352.25;;;20.57;83.58
67397;BME280;57728;50.448;18.824;2023-08-06T01:51:04;96342.91;;;20.49;82.88
67397;BME280;57728;50.448;18.824;2023-08-06T01:53:06;96299.97;;;20.31;83.33
67397;BME280;57728;50.448;18.824;2023-08-06T01:55:07;96320.63;;;20.45;83.38
67397;BME280;57728;50.448;18.824;2023-08-06T01:57:09;96338.25;;;20.62;83.36
67397;BME280;57728;50.448;18.824;2023-08-06T01:59:11;96342.97;;;20.61;82.88
67397;BME280;57728;50.448;18.824;2023-08-06T02:01:12;96314.56;;;20.52;82.64
67397;BME280;57728;50.448;18.824;2023-08-06T02:03:14;96288.91;;;20.31;83.21
67397;BME280;57728;50.448;18.824;2023-08-06T02:05:15;96342.72;;;20.54;82.86
67397;BME280;57728;50.448;18.824;2023-08-06T02:07:16;96363.47;;;20.60;82.54
67397;BME280;57728;50.448;18.824;2023-08-06T02:09:18;96354.41;;;20.51;82.78
67397;BME280;57728;50.448;18.824;2023-08-06T02:11:19;96365.72;;;20.58;82.91
67397;BME280;57728;50.448;18.824;2023-08-06T02:13:20;96379.66;;;20.71;82.41
67397;BME280;57728;50.448;18.824;2023-08-06T02:15:22;96361.97;;;20.63;82.35
67397;BME280;57728;50.448;18.824;2023-08-06T02:17:24;96390.03;;;20.74;82.34
67397;BME280;57728;50.448;18.824;2023-08-06T02:19:25;96366.84;;;20.66;82.65
67397;BME280;57728;50.448;18.824;2023-08-06T02:21:27;96375.63;;;20.68;82.74
67397;BME280;57728;50.448;18.824;2023-08-06T02:23:29;96372.50;;;20.70;82.34
67397;BME280;57728;50.448;18.824;2023-08-06T02:25:30;96376.03;;;20.79;82.40
67397;BME280;57728;50.448;18.824;2023-08-06T02:27:32;96368.06;;;20.77;82.41
67397;BME280;57728;50.448;18.824;2023-08-06T02:29:33;96360.81;;;20.73;82.25
67397;BME280;57728;50.448;18.824;2023-08-06T02:31:34;96354.44;;;20.72;82.48
67397;BME280;57728;50.448;18.824;2023-08-06T02:33:38;96357.13;;;20.81;82.04
67397;BME280;57728;50.448;18.824;2023-08-06T02:35:39;96353.09;;;20.78;82.15
67397;BME280;57728;50.448;18.824;2023-08-06T02:37:40;96349.06;;;20.76;81.92
67397;BME280;57728;50.448;18.824;2023-08-06T02:39:42;96374.31;;;20.87;81.88
67397;BME280;57728;50.448;18.824;2023-08-06T02:41:44;96371.09;;;20.85;81.88
67397;BME280;57728;50.448;18.824;2023-08-06T02:43:45;96309.66;;;20.37;81.73
67397;BME280;57728;50.448;18.824;2023-08-06T02:45:47;96336.34;;;20.54;81.89
67397;BME280;57728;50.448;18.824;2023-08-06T02:47:48;96375.88;;;20.75;82.23
67397;BME280;57728;50.448;18.824;2023-08-06T02:49:49;96357.44;;;20.67;82.16
67397;BME280;57728;50.448;18.824;2023-08-06T02:51:52;96357.75;;;20.66;82.27
67397;BME280;57728;50.448;18.824;2023-08-06T02:53:53;96348.38;;;20.79;82.52
67397;BME280;57728;50.448;18.824;2023-08-06T02:55:55;96318.38;;;20.69;82.00
67397;BME280;57728;50.448;18.824;2023-08-06T02:58:03;96247.91;;;20.33;81.94
67397;BME280;57728;50.448;18.824;2023-08-06T03:00:09;96324.22;;;20.88;82.41
67397;BME280;57728;50.448;18.824;2023-08-06T03:02:14;96312.47;;;20.91;82.17
67397;BME280;57728;50.448;18.824;2023-08-06T03:04:29;96317.66;;;20.93;81.69
67397;BME280;57728;50.448;18.824;2023-08-06T03:06:30;96287.41;;;20.75;81.83
67397;BME280;57728;50.448;18.824;2023-08-06T03:08:34;96320.09;;;20.94;82.05
67397;BME280;57728;50.448;18.824;2023-08-06T03:10:36;96318.00;;;20.91;81.70
67397;BME280;57728;50.448;18.824;2023-08-06T03:12:39;96315.00;;;20.96;81.87
67397;BME280;57728;50.448;18.824;2023-08-06T03:14:40;96307.28;;;20.90;81.73
67397;BME280;57728;50.448;18.824;2023-08-06T03:16:43;96290.75;;;20.81;81.70
67397;BME280;57728;50.448;18.824;2023-08-06T03:18:46;96252.75;;;20.57;81.83
67397;BME280;57728;50.448;18.824;2023-08-06T03:20:47;96257.91;;;20.67;81.30
67397;BME280;57728;50.448;18.824;2023-08-06T03:22:49;96292.38;;;20.82;81.93
67397;BME280;57728;50.448;18.824;2023-08-06T03:24:51;96303.00;;;20.92;81.88
67397;BME280;57728;50.448;18.824;2023-08-06T03:26:54;96290.09;;;20.84;81.59
67397;BME280;57728;50.448;18.824;2023-08-06T03:28:56;96241.72;;;20.36;81.81
67397;BME280;57728;50.448;18.824;2023-08-06T03:31:02;96263.25;;;20.64;81.77
67397;BME280;57728;50.448;18.824;2023-08-06T03:33:10;96238.66;;;20.50;81.40
67397;BME280;57728;50.448;18.824;2023-08-06T03:35:12;96242.25;;;20.50;81.59
67397;BME280;57728;50.448;18.824;2023-08-06T03:37:13;96267.00;;;20.68;82.18
67397;BME280;57728;50.448;18.824;2023-08-06T03:39:14;96308.44;;;20.89;81.80
67397;BME280;57728;50.448;18.824;2023-08-06T03:41:17;96297.38;;;20.89;81.98
67397;BME280;57728;50.448;18.824;2023-08-06T03:43:20;96276.94;;;20.81;81.96
67397;BME280;57728;50.448;18.824;2023-08-06T03:45:21;96252.03;;;20.69;82.07
67397;BME280;57728;50.448;18.824;2023-08-06T03:47:23;96305.22;;;20.99;81.81
67397;BME280;57728;50.448;18.824;2023-08-06T03:49:26;96259.88;;;20.79;81.96
67397;BME280;57728;50.448;18.824;2023-08-06T03:51:28;96297.06;;;21.03;81.54
67397;BME280;57728;50.448;18.824;2023-08-06T03:53:31;96265.06;;;20.81;81.50
67397;BME280;57728;50.448;18.824;2023-08-06T03:55:33;96273.75;;;20.91;81.48
67397;BME280;57728;50.448;18.824;2023-08-06T03:57:34;96247.88;;;20.75;81.32
67397;BME280;57728;50.448;18.824;2023-08-06T03:59:36;96277.91;;;20.98;81.53
67397;BME280;57728;50.448;18.824;2023-08-06T04:01:37;96249.75;;;20.83;81.64
67397;BME280;57728;50.448;18.824;2023-08-06T04:03:38;96271.09;;;20.95;81.23
67397;BME280;57728;50.448;18.824;2023-08-06T04:05:40;96252.03;;;20.81;81.89
67397;BME280;57728;50.448;18.824;2023-08-06T04:07:42;96244.91;;;20.80;81.91
67397;BME280;57728;50.448;18.824;2023-08-06T04:09:59;96261.75;;;20.87;81.87
67397;BME280;57728;50.448;18.824;2023-08-06T04:12:03;96258.44;;;20.94;81.73
67397;BME280;57728;50.448;18.824;2023-08-06T04:14:05;96257.41;;;20.99;81.87
67397;BME280;57728;50.448;18.824;2023-08-06T04:16:06;96232.03;;;20.84;81.85
67397;BME280;57728;50.448;18.824;2023-08-06T04:18:08;96254.31;;;21.00;81.30
67397;BME280;57728;50.448;18.824;2023-08-06T04:20:10;96220.50;;;20.82;81.18
67397;BME280;57728;50.448;18.824;2023-08-06T04:22:11;96147.75;;;20.36;81.15
67397;BME280;57728;50.448;18.824;2023-08-06T04:24:13;96231.78;;;20.89;81.52
67397;BME280;57728;50.448;18.824;2023-08-06T04:26:15;96266.19;;;21.13;81.40
67397;BME280;57728;50.448;18.824;2023-08-06T04:28:16;96232.28;;;20.91;81.11
67397;BME280;57728;50.448;18.824;2023-08-06T04:30:18;96247.16;;;20.99;81.38
67397;BME280;57728;50.448;18.824;2023-08-06T04:32:19;96182.50;;;20.58;81.34
67397;BME280;57728;50.448;18.824;2023-08-06T04:34:24;96243.69;;;21.02;81.16
67397;BME280;57728;50.448;18.824;2023-08-06T04:36:27;96193.97;;;20.69;81.14
67397;BME280;57728;50.448;18.824;2023-08-06T04:38:28;96230.66;;;20.90;81.23
67397;BME280;57728;50.448;18.824;2023-08-06T04:40:33;96244.38;;;20.99;81.71
67397;BME280;57728;50.448;18.824;2023-08-06T04:42:36;96252.09;;;20.93;81.72
67397;BME280;57728;50.448;18.824;2023-08-06T04:44:37;96274.47;;;21.01;81.53
67397;BME280;57728;50.448;18.824;2023-08-06T04:46:39;96270.31;;;20.94;81.67
67397;BME280;57728;50.448;18.824;2023-08-06T04:48:41;96260.69;;;20.79;81.76
67397;BME280;57728;50.448;18.824;2023-08-06T04:50:47;96209.50;;;20.40;82.10
67397;BME280;57728;50.448;18.824;2023-08-06T04:52:49;96244.69;;;20.64;82.23
67397;BME280;57728;50.448;18.824;2023-08-06T04:54:51;96192.03;;;20.48;82.31
67397;BME280;57728;50.448;18.824;2023-08-06T04:56:52;96206.44;;;20.54;82.06
67397;BME280;57728;50.448;18.824;2023-08-06T04:58:53;96160.81;;;20.14;82.49
67397;BME280;57728;50.448;18.824;2023-08-06T05:00:55;96224.84;;;20.50;82.37
67397;BME280;57728;50.448;18.824;2023-08-06T05:02:56;96220.19;;;20.41;82.67
67397;BME280;57728;50.448;18.824;2023-08-06T05:04:58;96202.06;;;20.19;83.31
67397;BME280;57728;50.448;18.824;2023-08-06T05:07:00;96244.53;;;20.48;83.15
67397;BME280;57728;50.448;18.824;2023-08-06T05:09:01;96100.22;;;19.54;83.24
67397;BME280;57728;50.448;18.824;2023-08-06T05:11:02;96233.22;;;20.41;83.29
67397;BME280;57728;50.448;18.824;2023-08-06T05:13:04;96122.38;;;19.67;83.38
67397;BME280;57728;50.448;18.824;2023-08-06T05:15:05;96178.75;;;20.08;83.41
67397;BME280;57728;50.448;18.824;2023-08-06T05:17:07;96136.75;;;19.81;83.62
67397;BME280;57728;50.448;18.824;2023-08-06T05:19:09;96102.31;;;19.57;83.49
67397;BME280;57728;50.448;18.824;2023-08-06T05:21:10;96202.84;;;20.20;83.49
67397;BME280;57728;50.448;18.824;2023-08-06T05:23:12;96195.78;;;20.10;83.02
67397;BME280;57728;50.448;18.824;2023-08-06T05:25:14;96224.16;;;20.19;83.14
67397;BME280;57728;50.448;18.824;2023-08-06T05:27:15;96211.81;;;19.96;83.09
67397;BME280;57728;50.448;18.824;2023-08-06T05:29:16;96158.78;;;19.60;82.97
67397;BME280;57728;50.448;18.824;2023-08-06T05:31:18;96218.81;;;19.93;83.26
67397;BME280;57728;50.448;18.824;2023-08-06T05:33:19;96205.56;;;19.77;82.67
67397;BME280;57728;50.448;18.824;2023-08-06T05:35:21;96200.78;;;19.66;82.60
67397;BME280;57728;50.448;18.824;2023-08-06T05:37:23;96171.25;;;19.36;82.98
67397;BME280;57728;50.448;18.824;2023-08-06T05:39:25;96178.75;;;19.36;82.92
67397;BME280;57728;50.448;18.824;2023-08-06T05:41:26;96192.31;;;19.41;83.00
67397;BME280;57728;50.448;18.824;2023-08-06T05:43:28;96206.63;;;19.43;83.06
67397;BME280;57728;50.448;18.824;2023-08-06T05:45:29;96134.34;;;18.90;83.00
67397;BME280;57728;50.448;18.824;2023-08-06T05:47:30;96177.56;;;19.16;82.70
67397;BME280;57728;50.448;18.824;2023-08-06T05:49:32;96180.00;;;19.08;82.66
67397;BME280;57728;50.448;18.824;2023-08-06T05:51:33;96126.00;;;18.60;82.78
67397;BME280;57728;50.448;18.824;2023-08-06T05:53:34;96167.25;;;18.86;82.59
67397;BME280;57728;50.448;18.824;2023-08-06T05:55:36;96116.16;;;18.50;82.88
67397;BME280;57728;50.448;18.824;2023-08-06T05:57:37;96206.94;;;19.03;83.36
67397;BME280;57728;50.448;18.824;2023-08-06T05:59:40;96183.63;;;18.92;83.02
67397;BME280;57728;50.448;18.824;2023-08-06T06:01:43;96179.56;;;18.98;83.39
67397;BME280;57728;50.448;18.824;2023-08-06T06:03:44;96190.41;;;19.03;83.26
67397;BME280;57728;50.448;18.824;2023-08-06T06:05:45;96182.50;;;18.93;82.77
67397;BME280;57728;50.448;18.824;2023-08-06T06:07:47;96182.69;;;18.79;82.70
67397;BME280;57728;50.448;18.824;2023-08-06T06:09:48;96191.91;;;18.92;82.76
67397;BME280;57728;50.448;18.824;2023-08-06T06:11:49;96182.84;;;18.91;82.83
67397;BME280;57728;50.448;18.824;2023-08-06T06:13:51;96175.69;;;18.90;82.35
67397;BME280;57728;50.448;18.824;2023-08-06T06:15:56;96128.72;;;18.69;82.29
67397;BME280;57728;50.448;18.824;2023-08-06T06:17:57;96119.03;;;18.63;82.34
67397;BME280;57728;50.448;18.824;2023-08-06T06:19:59;96043.06;;;18.06;82.22
67397;BME280;57728;50.448;18.824;2023-08-06T06:22:00;96128.13;;;18.54;82.31
67397;BME280;57728;50.448;18.824;2023-08-06T06:24:01;96112.25;;;18.51;82.34
67397;BME280;57728;50.448;18.824;2023-08-06T06:26:04;96150.47;;;18.62;81.83
67397;BME280;57728;50.448;18.824;2023-08-06T06:28:05;96081.88;;;18.30;82.08
67397;BME280;57728;50.448;18.824;2023-08-06T06:30:07;96131.19;;;18.62;82.37
67397;BME280;57728;50.448;18.824;2023-08-06T06:32:09;96050.59;;;18.26;82.13
67397;BME280;57728;50.448;18.824;2023-08-06T06:34:10;96089.38;;;18.60;82.25
67397;BME280;57728;50.448;18.824;2023-08-06T06:36:11;96082.06;;;18.64;81.63
67397;BME280;57728;50.448;18.824;2023-08-06T06:38:14;95888.66;;;17.25;81.63
67397;BME280;57728;50.448;18.824;2023-08-06T06:40:15;96114.63;;;18.70;81.33
67397;BME280;57728;50.448;18.824;2023-08-06T06:42:16;96128.09;;;18.72;81.68
67397;BME280;57728;50.448;18.824;2023-08-06T06:44:22;96138.28;;;18.71;80.93
67397;BME280;57728;50.448;18.824;2023-08-06T06:46:23;96152.41;;;18.70;81.22
67397;BME280;57728;50.448;18.824;2023-08-06T06:48:29;96146.28;;;18.55;80.87
67397;BME280;57728;50.448;18.824;2023-08-06T06:50:35;96157.00;;;18.48;81.02
67397;BME280;57728;50.448;18.824;2023-08-06T06:52:37;96182.78;;;18.52;81.17
67397;BME280;57728;50.448;18.824;2023-08-06T06:54:38;96129.69;;;18.26;81.17
67397;BME280;57728;50.448;18.824;2023-08-06T06:56:40;96118.50;;;18.13;81.65
67397;BME280;57728;50.448;18.824;2023-08-06T06:58:42;96019.16;;;17.36;82.30
67397;BME280;57728;50.448;18.824;2023-08-06T07:00:43;96125.19;;;17.95;83.05
67397;BME280;57728;50.448;18.824;2023-08-06T07:02:45;96061.56;;;17.44;83.35
67397;BME280;57728;50.448;18.824;2023-08-06T07:04:46;96102.50;;;17.54;84.12
67397;BME280;57728;50.448;18.824;2023-08-06T07:06:47;96151.03;;;17.59;84.23
67397;BME280;57728;50.448;18.824;2023-08-06T07:08:49;96146.03;;;17.43;84.59
67397;BME280;57728;50.448;18.824;2023-08-06T07:10:59;96090.19;;;17.16;85.20
67397;BME280;57728;50.448;18.824;2023-08-06T07:13:05;96049.00;;;16.85;84.91
67397;BME280;57728;50.448;18.824;2023-08-06T07:15:07;96086.41;;;16.95;85.69
67397;BME280;57728;50.448;18.824;2023-08-06T07:17:08;96056.09;;;16.68;85.67
67397;BME280;57728;50.448;18.824;2023-08-06T07:19:09;96066.06;;;16.56;85.78
67397;BME280;57728;50.448;18.824;2023-08-06T07:21:11;96101.50;;;16.66;86.33
67397;BME280;57728;50.448;18.824;2023-08-06T07:23:12;96082.03;;;16.54;86.91
67397;BME280;57728;50.448;18.824;2023-08-06T07:25:14;96119.59;;;16.67;86.97
67397;BME280;57728;50.448;18.824;2023-08-06T07:27:16;96110.38;;;16.63;87.50
67397;BME280;57728;50.448;18.824;2023-08-06T07:29:17;96046.59;;;16.35;87.85
67397;BME280;57728;50.448;18.824;2023-08-06T07:31:21;96081.91;;;16.59;87.87
67397;BME280;57728;50.448;18.824;2023-08-06T07:33:23;96076.75;;;16.57;88.29
67397;BME280;57728;50.448;18.824;2023-08-06T07:35:24;96065.56;;;16.54;88.45
67397;BME280;57728;50.448;18.824;2023-08-06T07:37:29;96047.22;;;16.31;88.28
67397;BME280;57728;50.448;18.824;2023-08-06T07:39:31;96078.81;;;16.52;88.15
67397;BME280;57728;50.448;18.824;2023-08-06T07:41:32;96087.88;;;16.61;88.48
67397;BME280;57728;50.448;18.824;2023-08-06T07:43:33;96092.25;;;16.62;88.07
67397;BME280;57728;50.448;18.824;2023-08-06T07:45:38;96098.88;;;16.61;87.81
67397;BME280;57728;50.448;18.824;2023-08-06T07:47:39;96080.25;;;16.49;87.98
67397;BME280;57728;50.448;18.824;2023-08-06T07:49:41;96086.09;;;16.56;87.93
67397;BME280;57728;50.448;18.824;2023-08-06T07:51:44;96094.16;;;16.53;87.90
67397;BME280;57728;50.448;18.824;2023-08-06T07:53:45;96074.31;;;16.24;87.43
67397;BME280;57728;50.448;18.824;2023-08-06T07:55:53;96073.13;;;16.08;87.45
67397;BME280;57728;50.448;18.824;2023-08-06T07:57:55;96132.47;;;16.26;87.87
67397;BME280;57728;50.448;18.824;2023-08-06T07:59:57;96149.69;;;16.18;87.95
67397;BME280;57728;50.448;18.824;2023-08-06T08:01:58;96159.78;;;16.09;88.05
67397;BME280;57728;50.448;18.824;2023-08-06T08:03:59;96173.53;;;16.09;88.50
67397;BME280;57728;50.448;18.824;2023-08-06T08:06:01;96156.63;;;15.93;88.75
67397;BME280;57728;50.448;18.824;2023-08-06T08:08:02;96156.50;;;15.98;88.65
67397;BME280;57728;50.448;18.824;2023-08-06T08:10:04;96155.50;;;15.94;89.20
67397;BME280;57728;50.448;18.824;2023-08-06T08:12:06;96163.84;;;15.89;89.21
67397;BME280;57728;50.448;18.824;2023-08-06T08:14:07;96119.47;;;15.50;89.19
67397;BME280;57728;50.448;18.824;2023-08-06T08:16:09;96118.88;;;15.39;89.56
67397;BME280;57728;50.448;18.824;2023-08-06T08:18:10;96183.69;;;15.86;90.32
67397;BME280;57728;50.448;18.824;2023-08-06T08:20:12;96191.81;;;15.91;90.48
67397;BME280;57728;50.448;18.824;2023-08-06T08:22:13;96193.13;;;15.93;89.96
67397;BME280;57728;50.448;18.824;2023-08-06T08:24:14;96178.56;;;15.93;89.93
67397;BME280;57728;50.448;18.824;2023-08-06T08:26:16;96158.25;;;15.94;90.04
67397;BME280;57728;50.448;18.824;2023-08-06T08:28:19;96116.03;;;15.81;89.98
67397;BME280;57728;50.448;18.824;2023-08-06T08:30:20;96079.50;;;15.58;90.12
67397;BME280;57728;50.448;18.824;2023-08-06T08:32:21;96100.78;;;15.75;90.36
67397;BME280;57728;50.448;18.824;2023-08-06T08:34:23;96128.00;;;15.85;90.30
67397;BME280;57728;50.448;18.824;2023-08-06T08:36:24;96112.56;;;15.75;90.73
67397;BME280;57728;50.448;18.824;2023-08-06T08:38:26;96134.31;;;15.86;90.70
67397;BME280;57728;50.448;18.824;2023-08-06T08:40:32;96126.94;;;15.72;90.65
67397;BME280;57728;50.448;18.824;2023-08-06T08:42:34;96153.88;;;15.93;90.83
67397;BME280;57728;50.448;18.824;2023-08-06T08:44:36;96145.22;;;15.99;91.25
67397;BME280;57728;50.448;18.824;2023-08-06T08:46:42;96133.81;;;16.06;91.39
67397;BME280;57728;50.448;18.824;2023-08-06T08:48:45;96102.13;;;16.00;91.09
67397;BME280;57728;50.448;18.824;2023-08-06T08:50:49;96120.63;;;16.17;91.40
67397;BME280;57728;50.448;18.824;2023-08-06T08:52:52;96104.84;;;16.23;91.24
67397;BME280;57728;50.448;18.824;2023-08-06T08:54:54;96120.22;;;16.32;91.35
67397;BME280;57728;50.448;18.824;2023-08-06T08:56:55;96119.56;;;16.27;90.99
67397;BME280;57728;50.448;18.824;2023-08-06T08:58:58;96142.75;;;16.43;90.75
67397;BME280;57728;50.448;18.824;2023-08-06T09:01:01;96127.34;;;16.33;90.29
67397;BME280;57728;50.448;18.824;2023-08-06T09:03:06;96133.25;;;16.49;90.45
67397;BME280;57728;50.448;18.824;2023-08-06T09:05:09;96056.50;;;16.13;89.84
67397;BME280;57728;50.448;18.824;2023-08-06T09:07:16;96018.44;;;15.89;89.44
67397;BME280;57728;50.448;18.824;2023-08-06T09:09:26;96109.97;;;16.47;89.52
67397;BME280;57728;50.448;18.824;2023-08-06T09:11:38;96115.91;;;16.40;89.47
67397;BME280;57728;50.448;18.824;2023-08-06T09:13:43;96098.19;;;16.15;89.22
67397;BME280;57728;50.448;18.824;2023-08-06T09:15:45;96081.97;;;16.05;88.99
67397;BME280;57728;50.448;18.824;2023-08-06T09:17:47;96132.66;;;16.30;89.06
67397;BME280;57728;50.448;18.824;2023-08-06T09:19:48;96143.88;;;16.42;89.36
67397;BME280;57728;50.448;18.824;2023-08-06T09:21:51;96124.47;;;16.39;89.41
67397;BME280;57728;50.448;18.824;2023-08-06T09:23:54;96138.72;;;16.49;89.53
67397;BME280;57728;50.448;18.824;2023-08-06T09:25:55;96147.97;;;16.54;89.35
67397;BME280;57728;50.448;18.824;2023-08-06T09:27:56;96146.00;;;16.54;88.83
67397;BME280;57728;50.448;18.824;2023-08-06T09:29:58;96148.94;;;16.58;88.73
67397;BME280;57728;50.448;18.824;2023-08-06T09:31:59;96156.88;;;16.59;88.53
67397;BME280;57728;50.448;18.824;2023-08-06T09:34:00;96088.00;;;16.15;88.34
67397;BME280;57728;50.448;18.824;2023-08-06T09:36:10;96150.75;;;16.62;87.89
67397;BME280;57728;50.448;18.824;2023-08-06T09:38:11;96122.75;;;16.52;88.16
67397;BME280;57728;50.448;18.824;2023-08-06T09:40:33;96108.41;;;16.63;87.58
67397;BME280;57728;50.448;18.824;2023-08-06T09:42:36;96090.59;;;16.52;87.75
67397;BME280;57728;50.448;18.824;2023-08-06T09:44:40;96084.56;;;16.41;87.44
67397;BME280;57728;50.448;18.824;2023-08-06T09:46:42;96113.88;;;16.55;87.21
67397;BME280;57728;50.448;18.824;2023-08-06T09:48:47;96114.38;;;16.57;86.86
67397;BME280;57728;50.448;18.824;2023-08-06T09:50:50;96096.72;;;16.49;87.27
67397;BME280;57728;50.448;18.824;2023-08-06T09:52:53;96113.38;;;16.53;86.83
67397;BME280;57728;50.448;18.824;2023-08-06T09:54:56;96107.56;;;16.54;87.07
67397;BME280;57728;50.448;18.824;2023-08-06T09:56:58;96083.56;;;16.37;86.57
67397;BME280;57728;50.448;18.824;2023-08-06T09:59:00;96102.38;;;16.53;85.78
67397;BME280;57728;50.448;18.824;2023-08-06T10:01:02;96094.63;;;16.46;86.18
67397;BME280;57728;50.448;18.824;2023-08-06T10:03:06;96103.03;;;16.49;85.78
67397;BME280;57728;50.448;18.824;2023-08-06T10:05:08;96119.25;;;16.60;85.68
67397;BME280;57728;50.448;18.824;2023-08-06T10:07:11;96125.22;;;16.62;85.67
67397;BME280;57728;50.448;18.824;2023-08-06T10:09:14;96113.59;;;16.65;85.19
67397;BME280;57728;50.448;18.824;2023-08-06T10:11:17;96112.78;;;16.64;84.59
67397;BME280;57728;50.448;18.824;2023-08-06T10:13:21;96091.56;;;16.47;84.54
67397;BME280;57728;50.448;18.824;2023-08-06T10:15:31;96095.63;;;16.50;84.40
67397;BME280;57728;50.448;18.824;2023-08-06T10:17:35;96088.97;;;16.51;84.30
67397;BME280;57728;50.448;18.824;2023-08-06T10:19:39;96108.25;;;16.60;84.14
67397;BME280;57728;50.448;18.824;2023-08-06T10:21:41;96121.38;;;16.72;83.85
67397;BME280;57728;50.448;18.824;2023-08-06T10:23:42;96100.19;;;16.63;84.01
67397;BME280;57728;50.448;18.824;2023-08-06T10:25:53;96100.31;;;16.58;83.09
67397;BME280;57728;50.448;18.824;2023-08-06T10:27:56;96125.91;;;16.76;83.25
67397;BME280;57728;50.448;18.824;2023-08-06T10:30:23;96130.28;;;16.77;83.43
67397;BME280;57728;50.448;18.824;2023-08-06T10:32:48;96131.09;;;16.78;83.00
67397;BME280;57728;50.448;18.824;2023-08-06T10:34:55;96139.84;;;16.80;83.39
67397;BME280;57728;50.448;18.824;2023-08-06T10:37:01;96126.75;;;16.77;83.26
67397;BME280;57728;50.448;18.824;2023-08-06T10:39:03;96123.84;;;16.82;82.72
67397;BME280;57728;50.448;18.824;2023-08-06T10:41:05;96115.09;;;16.71;82.92
67397;BME280;57728;50.448;18.824;2023-08-06T10:43:07;96135.34;;;16.84;82.32
67397;BME280;57728;50.448;18.824;2023-08-06T10:45:16;96128.66;;;16.76;82.67